createdAt,value
2019-04-29T00:01:37.364Z,2.77
2019-04-29T00:04:06.119Z,3.10
2019-04-29T00:06:34.837Z,3.33
2019-04-29T00:09:06.767Z,2.95
2019-04-29T00:11:34.624Z,2.83
2019-04-29T00:14:05.039Z,3.93
2019-04-29T00:16:38.246Z,2.85
2019-04-29T00:19:27.406Z,2.85
2019-04-29T00:21:56.228Z,3.17
2019-04-29T00:24:25.926Z,2.63
2019-04-29T00:29:22.536Z,3.08
2019-04-29T00:31:51.431Z,2.45
2019-04-29T00:34:21.937Z,2.90
2019-04-29T00:37:04.580Z,2.87
2019-04-29T00:39:52.924Z,2.50
2019-04-29T00:42:32.063Z,2.60
2019-04-29T00:45:00.898Z,2.62
2019-04-29T00:47:31.579Z,2.87
2019-04-29T00:50:00.729Z,2.77
2019-04-29T00:52:29.773Z,2.47
2019-04-29T00:55:08.947Z,2.70
2019-04-29T00:57:37.682Z,2.47
2019-04-29T01:00:08.382Z,2.52
2019-04-29T01:02:37.169Z,2.67
2019-04-29T01:05:07.007Z,2.77
2019-04-29T01:10:03.669Z,2.70
2019-04-29T01:12:33.917Z,2.80
2019-04-29T01:15:02.683Z,2.83
2019-04-29T01:17:31.493Z,2.60
2019-04-29T01:20:00.213Z,2.73
2019-04-29T01:22:29.845Z,2.70
2019-04-29T01:24:58.611Z,2.45
2019-04-29T01:27:29.035Z,2.60
2019-04-29T01:30:00.816Z,2.80
2019-04-29T01:32:29.799Z,2.65
2019-04-29T01:34:58.518Z,3.08
2019-04-29T01:37:28.906Z,2.67
2019-04-29T01:40:02.351Z,2.55
2019-04-29T01:42:35.399Z,2.80
2019-04-29T01:45:04.991Z,2.83
2019-04-29T01:47:33.730Z,2.65
2019-04-29T01:50:02.472Z,2.65
2019-04-29T01:52:31.255Z,2.30
2019-04-29T01:55:00.044Z,2.90
2019-04-29T01:57:28.773Z,2.77
2019-04-29T01:59:57.514Z,2.98
2019-04-29T02:02:26.305Z,2.80
2019-04-29T02:04:55.050Z,2.35
2019-04-29T02:07:23.826Z,3.00
2019-04-29T02:09:54.201Z,2.83
2019-04-29T02:12:22.912Z,2.83
2019-04-29T02:14:51.653Z,2.58
2019-04-29T02:17:20.411Z,2.77
2019-04-29T02:19:49.096Z,2.60
2019-04-29T02:22:25.170Z,2.62
2019-04-29T02:24:55.553Z,2.92
2019-04-29T02:27:24.273Z,2.75
2019-04-29T02:29:52.998Z,3.08
2019-04-29T02:32:21.729Z,2.45
2019-04-29T02:34:50.458Z,3.37
2019-04-29T02:37:20.864Z,2.75
2019-04-29T02:39:51.194Z,2.90
2019-04-29T02:42:39.671Z,2.65
2019-04-29T02:45:12.882Z,2.40
2019-04-29T02:47:43.216Z,3.10
2019-04-29T02:50:11.919Z,2.65
2019-04-29T02:52:40.663Z,3.10
2019-04-29T02:55:11.260Z,2.83
2019-04-29T02:57:47.311Z,2.72
2019-04-29T03:00:26.925Z,3.08
2019-04-29T03:03:00.079Z,3.00
2019-04-29T03:05:30.452Z,3.02
2019-04-29T03:07:59.298Z,2.40
2019-04-29T03:10:28.113Z,2.73
2019-04-29T03:12:56.909Z,3.10
2019-04-29T03:15:32.861Z,3.63
2019-04-29T03:18:01.917Z,3.20
2019-04-29T03:20:34.921Z,3.15
2019-04-29T03:23:08.717Z,3.10
2019-04-29T03:25:37.507Z,2.50
2019-04-29T03:28:06.450Z,3.27
2019-04-29T03:30:35.161Z,2.70
2019-04-29T03:33:03.918Z,2.77
2019-04-29T03:35:32.624Z,3.15
2019-04-29T03:38:01.380Z,3.17
2019-04-29T03:40:30.178Z,2.90
2019-04-29T03:42:58.892Z,3.50
2019-04-29T03:45:27.621Z,3.08
2019-04-29T03:47:56.348Z,4.17
2019-04-29T03:50:25.070Z,3.15
2019-04-29T03:52:53.793Z,3.70
2019-04-29T03:55:38.231Z,2.92
2019-04-29T03:57:52.868Z,2.85
2019-04-29T04:00:23.085Z,2.67
2019-04-29T04:02:59.269Z,2.85
2019-04-29T04:05:29.664Z,2.95
2019-04-29T04:08:02.513Z,3.17
2019-04-29T04:10:31.306Z,3.30
2019-04-29T04:13:00.050Z,3.73
2019-04-29T04:15:29.735Z,3.55
2019-04-29T04:20:33.959Z,2.87
2019-04-29T04:23:02.693Z,3.37
2019-04-29T04:25:31.445Z,2.80
2019-04-29T04:28:00.161Z,3.27
2019-04-29T04:30:28.989Z,3.40
2019-04-29T04:32:57.715Z,3.33
2019-04-29T04:35:26.446Z,3.27
2019-04-29T04:37:55.166Z,3.10
2019-04-29T04:40:27.010Z,3.10
2019-04-29T04:42:55.726Z,3.30
2019-04-29T04:45:24.532Z,3.17
2019-04-29T04:47:53.266Z,2.83
2019-04-29T04:50:22.009Z,3.75
2019-04-29T04:52:50.727Z,4.72
2019-04-29T04:55:21.089Z,4.00
2019-04-29T04:57:49.805Z,5.85
2019-04-29T05:00:27.379Z,4.37
2019-04-29T05:02:56.109Z,3.17
2019-04-29T05:05:24.844Z,3.25
2019-04-29T05:07:53.573Z,3.65
2019-04-29T05:10:22.307Z,3.05
2019-04-29T05:12:51.052Z,3.40
2019-04-29T05:15:19.837Z,3.50
2019-04-29T05:17:52.878Z,4.13
2019-04-29T05:20:21.698Z,3.33
2019-04-29T05:22:59.504Z,3.27
2019-04-29T05:25:30.222Z,3.58
2019-04-29T05:27:58.966Z,3.00
2019-04-29T05:30:27.743Z,3.70
2019-04-29T05:32:56.469Z,3.25
2019-04-29T05:35:39.895Z,3.37
2019-04-29T05:38:23.025Z,3.70
2019-04-29T05:40:56.898Z,3.60
2019-04-29T05:43:27.188Z,5.67
2019-04-29T05:46:01.502Z,3.58
2019-04-29T05:48:31.991Z,3.02
2019-04-29T05:51:02.296Z,3.25
2019-04-29T05:53:54.706Z,3.30
2019-04-29T05:56:20.056Z,4.03
2019-04-29T05:58:48.829Z,3.90
2019-04-29T06:01:19.210Z,4.20
2019-04-29T06:03:47.959Z,4.20
2019-04-29T06:06:16.668Z,3.60
2019-04-29T06:08:45.388Z,3.35
2019-04-29T06:11:14.134Z,3.33
2019-04-29T06:13:42.854Z,3.87
2019-04-29T06:16:15.760Z,3.62
2019-04-29T06:18:42.040Z,4.05
2019-04-29T06:21:10.712Z,3.50
2019-04-29T06:23:39.515Z,3.85
2019-04-29T06:26:08.229Z,3.30
2019-04-29T06:28:37.023Z,3.50
2019-04-29T06:31:05.746Z,3.80
2019-04-29T06:33:34.478Z,3.52
2019-04-29T06:36:03.217Z,3.50
2019-04-29T06:38:31.942Z,3.70
2019-04-29T06:41:00.693Z,4.45
2019-04-29T06:43:30.681Z,3.63
2019-04-29T06:45:59.573Z,3.92
2019-04-29T06:48:28.381Z,3.57
2019-04-29T06:50:57.105Z,3.87
2019-04-29T06:53:26.132Z,3.87
2019-04-29T06:55:54.889Z,4.20
2019-04-29T06:58:23.608Z,3.47
2019-04-29T07:00:55.762Z,3.30
2019-04-29T07:03:25.552Z,4.00
2019-04-29T07:05:53.069Z,4.08
2019-04-29T07:08:21.890Z,4.23
2019-04-29T07:10:50.624Z,3.50
2019-04-29T07:13:22.770Z,3.60
2019-04-29T07:15:49.733Z,4.10
2019-04-29T07:18:18.461Z,4.00
2019-04-29T07:20:47.195Z,3.90
2019-04-29T07:23:15.972Z,3.87
2019-04-29T07:25:44.700Z,3.93
2019-04-29T07:28:13.690Z,4.22
2019-04-29T07:31:00.685Z,3.85
2019-04-29T07:33:21.825Z,3.90
2019-04-29T07:35:48.053Z,3.77
2019-04-29T07:38:15.002Z,3.42
2019-04-29T07:40:44.637Z,3.73
2019-04-29T07:45:45.949Z,4.00
2019-04-29T07:48:14.690Z,4.60
2019-04-29T07:50:43.721Z,4.00
2019-04-29T07:53:12.538Z,3.55
2019-04-29T07:55:41.294Z,3.97
2019-04-29T07:58:10.039Z,4.60
2019-04-29T08:00:38.762Z,4.17
2019-04-29T08:03:08.426Z,4.93
2019-04-29T08:08:05.849Z,4.10
2019-04-29T08:10:34.734Z,4.60
2019-04-29T08:13:04.468Z,4.60
2019-04-29T08:18:06.709Z,4.12
2019-04-29T08:20:31.492Z,4.22
2019-04-29T08:23:02.594Z,3.70
2019-04-29T08:25:30.622Z,4.05
2019-04-29T08:27:59.339Z,3.87
2019-04-29T08:30:28.082Z,4.10
2019-04-29T08:32:56.764Z,4.05
2019-04-29T08:35:25.474Z,4.70
2019-04-29T08:37:54.192Z,4.33
2019-04-29T08:40:22.935Z,3.87
2019-04-29T08:42:59.301Z,3.67
2019-04-29T08:45:39.092Z,4.08
2019-04-29T08:48:06.034Z,4.60
2019-04-29T08:50:34.769Z,4.73
2019-04-29T08:53:04.311Z,3.80
2019-04-29T09:00:32.188Z,8.23
2019-04-29T09:03:01.004Z,4.13
2019-04-29T09:05:29.697Z,4.03
2019-04-29T09:07:59.067Z,3.57
2019-04-29T09:12:55.772Z,3.50
2019-04-29T09:15:24.500Z,3.67
2019-04-29T09:17:53.264Z,4.00
2019-04-29T09:20:22.113Z,3.80
2019-04-29T09:22:58.261Z,4.45
2019-04-29T09:25:28.662Z,3.83
2019-04-29T09:27:59.053Z,4.80
2019-04-29T09:30:27.870Z,3.90
2019-04-29T09:32:56.582Z,4.03
2019-04-29T09:35:28.445Z,4.05
2019-04-29T09:37:58.507Z,4.17
2019-04-29T09:40:27.678Z,4.58
2019-04-29T09:43:15.807Z,5.03
2019-04-29T09:45:42.395Z,5.20
2019-04-29T09:48:11.210Z,3.85
2019-04-29T09:50:40.991Z,4.58
2019-04-29T09:53:09.972Z,4.75
2019-04-29T09:55:39.919Z,3.95
2019-04-29T09:58:09.148Z,4.20
2019-04-29T10:00:46.532Z,5.47
2019-04-29T10:03:26.045Z,4.50
2019-04-29T10:05:56.420Z,4.35
2019-04-29T10:08:25.163Z,6.22
2019-04-29T10:10:53.895Z,4.80
2019-04-29T10:13:22.691Z,5.05
2019-04-29T10:16:05.221Z,3.55
2019-04-29T10:18:35.603Z,5.15
2019-04-29T10:21:06.080Z,4.20
2019-04-29T10:23:34.812Z,4.80
2019-04-29T10:26:03.623Z,4.17
2019-04-29T10:28:33.633Z,6.03
2019-04-29T10:31:03.664Z,4.12
2019-04-29T10:33:32.391Z,3.98
2019-04-29T10:36:01.296Z,3.75
2019-04-29T10:38:30.026Z,5.45
2019-04-29T10:41:09.869Z,4.72
2019-04-29T10:43:40.239Z,4.28
2019-04-29T10:46:10.616Z,5.58
2019-04-29T10:48:43.829Z,3.85
2019-04-29T10:51:14.262Z,3.80
2019-04-29T10:53:46.725Z,3.90
2019-04-29T10:56:13.435Z,4.92
2019-04-29T10:58:43.625Z,3.92
2019-04-29T11:01:29.206Z,3.50
2019-04-29T11:04:00.899Z,4.58
2019-04-29T11:06:31.432Z,3.83
2019-04-29T11:08:59.243Z,4.12
2019-04-29T11:11:29.814Z,3.75
2019-04-29T11:14:01.468Z,4.45
2019-04-29T11:16:45.280Z,4.15
2019-04-29T11:19:03.080Z,3.90
2019-04-29T11:21:31.313Z,4.60
2019-04-29T11:24:04.560Z,5.00
2019-04-29T11:26:37.749Z,4.00
2019-04-29T11:29:09.371Z,3.80
2019-04-29T11:31:37.820Z,4.00
2019-04-29T11:34:11.592Z,3.90
2019-04-29T11:36:44.095Z,4.95
2019-04-29T11:39:15.197Z,3.65
2019-04-29T11:41:44.211Z,3.92
2019-04-29T11:44:12.997Z,4.30
2019-04-29T11:46:44.721Z,3.50
2019-04-29T11:49:13.639Z,3.20
2019-04-29T11:52:07.726Z,3.80
2019-04-29T11:54:18.098Z,3.65
2019-04-29T11:56:44.904Z,3.67
2019-04-29T11:59:15.365Z,3.37
2019-04-29T12:01:53.499Z,3.55
2019-04-29T12:04:36.100Z,3.37
2019-04-29T12:07:04.920Z,3.80
2019-04-29T12:12:01.892Z,3.55
2019-04-29T12:14:33.794Z,3.83
2019-04-29T12:17:13.431Z,3.47
2019-04-29T12:19:43.823Z,8.93
2019-04-29T12:22:26.924Z,3.70
2019-04-29T12:24:42.990Z,3.35
2019-04-29T12:29:41.633Z,3.37
2019-04-29T12:32:30.399Z,6.08
2019-04-29T12:35:03.451Z,3.52
2019-04-29T12:37:39.939Z,3.62
2019-04-29T12:40:14.465Z,3.17
2019-04-29T12:42:43.070Z,3.65
2019-04-29T12:45:19.475Z,4.00
2019-04-29T12:47:45.294Z,3.90
2019-04-29T12:50:17.494Z,4.37
2019-04-29T12:52:44.678Z,4.00
2019-04-29T12:57:44.682Z,3.67
2019-04-29T13:03:01.732Z,3.52
2019-04-29T13:05:31.894Z,3.02
2019-04-29T13:08:18.469Z,3.10
2019-04-29T13:10:48.892Z,3.67
2019-04-29T13:13:20.115Z,2.72
2019-04-29T13:15:54.384Z,2.85
2019-04-29T13:18:42.962Z,4.15
2019-04-29T13:21:11.702Z,3.92
2019-04-29T13:26:09.984Z,3.20
2019-04-29T13:31:08.282Z,3.08
2019-04-29T13:36:05.741Z,2.73
2019-04-29T13:38:34.482Z,2.87
2019-04-29T13:43:35.314Z,3.67
2019-04-29T13:46:10.494Z,2.60
2019-04-29T13:49:06.194Z,5.62
2019-04-29T13:51:44.011Z,9.63
2019-04-29T13:54:13.014Z,3.92
2019-04-29T13:59:12.927Z,3.65
2019-04-29T14:02:02.912Z,2.90
2019-04-29T14:04:33.700Z,2.60
2019-04-29T14:07:02.428Z,2.42
2019-04-29T14:09:34.911Z,3.20
2019-04-29T14:12:31.369Z,3.10
2019-04-29T14:14:31.962Z,3.12
2019-04-29T14:17:17.417Z,2.60
2019-04-29T14:19:41.103Z,3.10
2019-04-29T14:22:01.555Z,2.40
2019-04-29T14:24:30.274Z,2.40
2019-04-29T14:26:59.067Z,2.30
2019-04-29T14:29:28.782Z,2.52
2019-04-29T14:32:01.334Z,2.30
2019-04-29T14:34:36.302Z,2.58
2019-04-29T14:37:19.561Z,2.33
2019-04-29T14:39:37.673Z,2.40
2019-04-29T14:42:10.534Z,2.42
2019-04-29T14:44:57.171Z,3.10
2019-04-29T14:47:33.569Z,2.30
2019-04-29T14:50:10.643Z,2.08
2019-04-29T14:52:37.618Z,2.12
2019-04-29T14:55:07.727Z,1.82
2019-04-29T14:57:36.464Z,2.20
2019-04-29T15:00:09.103Z,2.72
2019-04-29T15:02:37.872Z,2.37
2019-04-29T15:05:12.281Z,2.70
2019-04-29T15:07:37.950Z,2.12
2019-04-29T15:10:08.338Z,2.10
2019-04-29T15:13:01.444Z,2.00
2019-04-29T15:15:34.247Z,2.50
2019-04-29T15:18:18.721Z,2.10
2019-04-29T15:21:01.872Z,2.17
2019-04-29T15:23:32.997Z,2.60
2019-04-29T15:26:01.949Z,2.22
2019-04-29T15:28:30.672Z,2.47
2019-04-29T15:30:59.464Z,1.80
2019-04-29T15:33:30.519Z,2.08
2019-04-29T15:35:59.839Z,2.08
2019-04-29T15:38:29.024Z,2.30
2019-04-29T15:40:57.776Z,2.05
2019-04-29T15:43:45.699Z,2.00
2019-04-29T15:45:56.895Z,3.02
2019-04-29T15:48:25.591Z,2.92
2019-04-29T15:50:54.334Z,2.65
2019-04-29T15:53:23.059Z,2.30
2019-04-29T15:56:05.929Z,1.75
2019-04-29T15:58:27.059Z,3.22
2019-04-29T16:00:52.808Z,9.65
2019-04-29T16:03:21.804Z,13.50
2019-04-29T16:06:19.686Z,3.77
2019-04-29T16:08:51.302Z,3.92
2019-04-29T16:11:33.449Z,3.83
2019-04-29T16:14:09.581Z,1.80
2019-04-29T16:16:35.198Z,2.45
2019-04-29T16:19:07.977Z,2.52
2019-04-29T16:21:39.053Z,2.62
2019-04-29T16:24:24.906Z,2.40
2019-04-29T16:26:39.391Z,5.67
2019-04-29T16:29:13.233Z,2.60
2019-04-29T16:31:38.654Z,2.22
2019-04-29T16:34:07.482Z,2.20
2019-04-29T16:36:36.308Z,2.55
2019-04-29T16:39:07.078Z,3.08
2019-04-29T16:41:43.698Z,2.58
2019-04-29T16:44:34.539Z,7.80
2019-04-29T16:46:50.036Z,4.60
2019-04-29T16:49:19.128Z,6.72
2019-04-29T16:51:53.487Z,9.63
2019-04-29T16:54:22.171Z,6.85
2019-04-29T16:56:50.178Z,5.72
2019-04-29T16:59:18.923Z,5.75
2019-04-29T17:01:47.917Z,8.10
2019-04-29T17:04:16.628Z,8.43
2019-04-29T17:07:10.699Z,6.20
2019-04-29T17:09:33.664Z,5.08
2019-04-29T17:12:02.798Z,2.95
2019-04-29T17:14:31.572Z,3.02
2019-04-29T17:17:00.419Z,4.62
2019-04-29T17:19:29.248Z,3.85
2019-04-29T17:22:24.101Z,5.12
2019-04-29T17:24:28.602Z,14.47
2019-04-29T17:27:07.091Z,24.12
2019-04-29T17:29:39.349Z,13.60
2019-04-29T17:32:22.608Z,4.83
2019-04-29T17:34:58.700Z,3.02
2019-04-29T17:37:22.985Z,2.98
2019-04-29T17:42:19.668Z,3.42
2019-04-29T17:44:51.642Z,4.42
2019-04-29T17:47:42.503Z,3.77
2019-04-29T17:50:31.324Z,3.08
2019-04-29T17:52:59.832Z,3.62
2019-04-29T17:55:38.055Z,3.35
2019-04-29T17:58:02.327Z,3.52
2019-04-29T18:00:56.220Z,3.58
2019-04-29T18:03:25.219Z,4.37
2019-04-29T18:05:58.670Z,3.60
2019-04-29T18:08:29.104Z,3.10
2019-04-29T18:11:06.596Z,3.55
2019-04-29T18:13:35.255Z,3.83
2019-04-29T18:16:17.106Z,4.17
2019-04-29T18:18:48.939Z,4.33
2019-04-29T18:21:20.620Z,4.58
2019-04-29T18:23:51.526Z,5.22
2019-04-29T18:26:27.427Z,4.58
2019-04-29T18:29:03.572Z,3.87
2019-04-29T18:31:30.698Z,3.92
2019-04-29T18:33:59.275Z,3.67
2019-04-29T18:36:28.287Z,3.90
2019-04-29T18:38:57.144Z,6.40
2019-04-29T18:41:28.766Z,5.35
2019-04-29T18:44:02.763Z,5.40
2019-04-29T18:46:31.070Z,5.08
2019-04-29T18:49:05.266Z,4.05
2019-04-29T18:51:36.174Z,4.70
2019-04-29T18:54:07.719Z,4.90
2019-04-29T18:56:37.804Z,4.12
2019-04-29T18:59:06.798Z,4.20
2019-04-29T19:01:35.604Z,3.92
2019-04-29T19:04:21.376Z,4.50
2019-04-29T19:06:51.269Z,4.10
2019-04-29T19:09:22.344Z,4.90
2019-04-29T19:11:53.095Z,4.15
2019-04-29T19:14:25.562Z,4.00
2019-04-29T19:16:52.720Z,3.98
2019-04-29T19:19:22.475Z,3.30
2019-04-29T19:21:51.241Z,4.13
2019-04-29T19:24:20.065Z,3.95
2019-04-29T19:26:48.801Z,4.08
2019-04-29T19:29:17.541Z,4.10
2019-04-29T19:31:49.723Z,3.60
2019-04-29T19:34:18.663Z,3.92
2019-04-29T19:36:50.674Z,3.77
2019-04-29T19:39:21.727Z,3.87
2019-04-29T19:41:50.364Z,3.60
2019-04-29T19:44:18.283Z,4.00
2019-04-29T19:46:47.019Z,3.30
2019-04-29T19:49:15.854Z,3.37
2019-04-29T19:51:47.352Z,3.30
2019-04-29T19:54:16.935Z,3.60
2019-04-29T19:56:45.455Z,3.60
2019-04-29T19:59:17.108Z,3.47
2019-04-29T20:01:48.949Z,3.83
2019-04-29T20:04:23.381Z,4.03
2019-04-29T20:06:58.451Z,3.60
2019-04-29T20:09:24.609Z,3.75
2019-04-29T20:11:55.509Z,3.33
2019-04-29T20:14:27.435Z,4.50
2019-04-29T20:17:09.480Z,4.05
2019-04-29T20:19:45.098Z,3.20
2019-04-29T20:22:13.520Z,3.33
2019-04-29T20:24:43.027Z,3.60
2019-04-29T20:27:13.627Z,3.67
2019-04-29T20:29:42.495Z,3.30
2019-04-29T20:32:11.616Z,3.45
2019-04-29T20:34:40.568Z,3.47
2019-04-29T20:37:10.841Z,4.17
2019-04-29T20:39:39.987Z,3.08
2019-04-29T20:42:10.456Z,3.42
2019-04-29T20:44:44.484Z,3.55
2019-04-29T20:47:19.089Z,2.98
2019-04-29T20:49:40.208Z,3.40
2019-04-29T20:52:20.245Z,3.50
2019-04-29T20:54:52.665Z,2.90
2019-04-29T20:57:21.402Z,3.05
2019-04-29T20:59:50.458Z,3.20
2019-04-29T21:02:30.323Z,3.10
2019-04-29T21:04:48.881Z,2.62
2019-04-29T21:07:23.936Z,2.55
2019-04-29T21:09:48.302Z,2.95
2019-04-29T21:12:25.540Z,2.83
2019-04-29T21:14:59.164Z,3.20
2019-04-29T21:17:31.579Z,3.08
2019-04-29T21:19:56.834Z,2.90
2019-04-29T21:22:26.044Z,2.90
2019-04-29T21:24:55.099Z,3.35
2019-04-29T21:27:25.849Z,3.05
2019-04-29T21:29:55.451Z,2.87
2019-04-29T21:32:25.764Z,3.20
2019-04-29T21:34:56.423Z,2.95
2019-04-29T21:37:46.659Z,3.10
2019-04-29T21:40:20.517Z,3.08
2019-04-29T21:42:50.889Z,2.95
2019-04-29T21:45:19.685Z,3.25
2019-04-29T21:47:53.214Z,3.23
2019-04-29T21:50:18.986Z,3.30
2019-04-29T21:52:47.706Z,3.30
2019-04-29T21:55:20.609Z,3.20
2019-04-29T21:57:46.812Z,3.72
2019-04-29T22:00:24.066Z,3.57
2019-04-29T22:02:49.093Z,3.10
2019-04-29T22:05:18.318Z,3.37
2019-04-29T22:07:47.560Z,2.87
2019-04-29T22:10:20.015Z,3.00
2019-04-29T22:12:50.887Z,3.33
2019-04-29T22:15:29.249Z,2.72
2019-04-29T22:17:56.199Z,2.67
2019-04-29T22:20:18.561Z,2.83
2019-04-29T22:22:47.795Z,3.10
2019-04-29T22:25:16.705Z,3.15
2019-04-29T22:27:45.507Z,2.83
2019-04-29T22:30:18.418Z,2.90
2019-04-29T22:32:47.160Z,2.72
2019-04-29T22:35:16.689Z,2.87
2019-04-29T22:37:45.539Z,2.80
2019-04-29T22:40:17.249Z,3.30
2019-04-29T22:43:05.113Z,3.02
2019-04-29T22:45:33.796Z,3.00
2019-04-29T22:48:14.643Z,3.50
2019-04-29T22:50:33.673Z,3.35
2019-04-29T22:53:05.167Z,3.15
2019-04-29T22:55:37.147Z,3.77
2019-04-29T22:58:08.117Z,4.05
2019-04-29T23:00:33.902Z,4.12
2019-04-29T23:03:03.556Z,4.08
2019-04-29T23:05:32.367Z,4.00
2019-04-29T23:08:01.102Z,3.98
2019-04-29T23:10:29.848Z,4.23
2019-04-29T23:12:58.580Z,3.60
2019-04-29T23:15:27.311Z,3.63
2019-04-29T23:17:56.050Z,3.83
2019-04-29T23:20:42.859Z,3.70
2019-04-29T23:23:22.225Z,3.45
2019-04-29T23:25:55.691Z,3.40
2019-04-29T23:28:26.905Z,3.45
2019-04-29T23:30:54.988Z,3.58
2019-04-29T23:33:25.884Z,3.97
2019-04-29T23:35:56.016Z,3.08
2019-04-29T23:38:25.554Z,3.47
2019-04-29T23:40:56.245Z,3.35
2019-04-29T23:43:28.295Z,3.30
2019-04-29T23:45:56.956Z,3.45
2019-04-29T23:48:38.089Z,3.05
2019-04-29T23:50:58.099Z,2.98
2019-04-29T23:53:26.640Z,3.25
2019-04-29T23:55:59.873Z,2.92
2019-04-29T23:58:32.592Z,3.02
